Latest Weather Observations for Port Fairy

IDV60801

Issued at 6:35 pm EST Thursday 2 October 2014 (issued every 30 minutes, with the page automatically refreshed every 10 minutes)

About weather observations | Map of weather stations | Latest weather observations for VIC | Other Formats
Station Details ID: 090175 Name: PORT FAIRY AWS Lat: -38.39 Lon: 142.23 Height: 10.0 m
Data from the previous 72 hours. | See also: Recent months at Port Fairy
Date/Time
EST
Temp
°C
App
Temp
°C
Dew
Point
Rel
Hum
%
Delta-T
°C
Wind Press
QNH
hPa
Press
MSL
hPa
Rain
since 9 am
mm
Dir
 
Spd
km/h
Gust
km/h
Spd
kts
Gust
kts
02/06:30pm 12.2 8.9 9.4 83 1.4 WSW 17 22 9 12 1024.7 1024.7 0.0
02/06:00pm 12.8 9.1 10.0 83 1.4 WSW 20 28 11 15 1024.6 1024.6 0.0
02/05:30pm 13.1 9.6 10.1 82 1.5 WSW 19 24 10 13 1024.7 1024.7 0.0
02/05:00pm 13.2 9.6 10.6 84 1.3 SW 20 28 11 15 1024.5 1024.5 0.0
02/04:30pm 13.3 8.9 10.3 82 1.6 WSW 24 32 13 17 1024.5 1024.5 0.0
02/04:00pm 15.5 11.8 11.5 77 2.1 WSW 22 30 12 16 1024.3 1024.3 0.0
02/03:30pm 14.0 10.5 11.0 82 1.6 W 20 28 11 15 1024.4 1024.4 0.0
02/03:00pm 15.0 10.7 12.0 82 1.6 WSW 26 32 14 17 1024.5 1024.5 0.0
02/02:30pm 13.3 8.6 10.8 85 1.3 WSW 26 37 14 20 1024.8 1024.8 0.0
02/02:00pm 14.7 9.5 11.7 82 1.6 WSW 30 37 16 20 1024.8 1024.8 0.0
02/01:30pm 14.2 9.3 11.2 82 1.6 WSW 28 41 15 22 1025.1 1025.1 0.0
02/01:00pm 13.5 9.6 10.9 84 1.4 W 22 32 12 17 1025.3 1025.3 0.0
02/12:30pm 13.1 8.4 10.6 85 1.3 WSW 26 33 14 18 1025.4 1025.4 0.0
02/12:00pm 13.6 8.6 9.6 77 2.0 W 26 37 14 20 1025.5 1025.5 0.0
02/11:30am 14.5 8.4 10.3 76 2.2 WSW 33 43 18 23 1025.6 1025.6 0.0
02/11:00am 13.9 8.1 9.3 74 2.3 WSW 30 41 16 22 1025.6 1025.6 0.0
02/10:30am 14.1 8.9 10.1 77 2.1 WSW 28 37 15 20 1025.6 1025.6 0.0
02/10:00am 13.3 8.0 9.7 79 1.8 W 28 37 15 20 1025.5 1025.5 0.0
02/09:30am 13.4 7.6 9.3 76 2.1 WSW 30 39 16 21 1025.4 1025.4 0.0
02/09:00am 13.6 8.0 8.9 73 2.4 WSW 28 39 15 21 1025.1 1025.1 0.6
02/08:30am 13.1 7.5 8.6 74 2.2 WSW 28 37 15 20 1025.1 1025.1 0.6
02/08:00am 12.8 7.8 8.1 73 2.3 W 24 32 13 17 1024.9 1024.9 0.6
02/07:30am 12.9 7.2 8.4 74 2.2 WSW 28 35 15 19 1024.7 1024.7 0.6
02/07:00am 12.7 6.6 8.4 75 2.1 WSW 30 43 16 23 1024.5 1024.5 0.6
02/06:30am 12.6 6.2 8.7 77 1.9 WSW 32 43 17 23 1024.3 1024.3 0.6
02/06:00am 12.7 7.3 9.5 81 1.6 WSW 28 43 15 23 1023.9 1023.9 0.6
02/05:30am 12.7 7.0 9.9 83 1.4 WSW 30 35 16 19 1023.8 1023.8 0.6
02/05:00am 12.1 8.2 8.6 79 1.7 W 19 32 10 17 1023.7 1023.7 0.6
02/04:30am 12.2 7.0 9.0 81 1.6 W 26 35 14 19 1023.7 1023.7 0.6
02/04:00am 12.7 7.0 9.9 83 1.4 WSW 30 39 16 21 1023.7 1023.7 0.6
02/03:30am 12.1 7.1 9.7 85 1.2 W 26 44 14 24 1023.6 1023.6 0.6
02/03:00am 11.8 7.7 10.0 89 0.9 W 22 33 12 18 1023.9 1023.9 0.6
02/02:30am 11.2 7.4 9.8 91 0.7 W 20 33 11 18 1024.2 1024.2 0.6
02/02:00am 10.7 6.8 9.3 91 0.7 W 20 28 11 15 1024.6 1024.6 0.6
02/01:30am 10.1 7.6 8.4 89 0.8 NW 11 19 6 10 1024.7 1024.7 0.4
02/01:00am 10.9 6.6 9.2 89 0.8 W 22 33 12 18 1024.9 1024.9 0.4
02/12:30am 9.5 6.8 7.3 86 1.0 NW 11 19 6 10 1025.0 1025.0 0.2
02/12:00am 10.1 7.1 7.7 85 1.1 NW 13 22 7 12 1025.2 1025.2 0.2
 
Date/Time
EST
Temp
°C
App
Temp
°C
Dew
Point
Rel
Hum
%
Delta-T
°C
Wind Press
QNH
hPa
Press
MSL
hPa
Rain
since 9 am
mm
Dir
 
Spd
km/h
Gust
km/h
Spd
kts
Gust
kts
01/11:30pm 9.8 7.0 7.1 83 1.3 NNW 11 17 6 9 1025.4 1025.4 0.2
01/11:00pm 11.2 6.6 8.2 82 1.5 W 22 32 12 17 1025.6 1025.6 0.0
01/10:30pm 10.8 8.7 6.7 76 1.9 NW 7 13 4 7 1025.5 1025.5 0.0
01/10:00pm 11.4 8.9 6.7 73 2.2 NW 9 17 5 9 1025.8 1025.8 0.0
01/09:30pm 12.1 8.5 6.8 70 2.5 W 15 24 8 13 1025.8 1025.8 0.0
01/09:00pm 12.4 7.9 7.1 70 2.5 W 20 35 11 19 1025.9 1025.9 0.0
01/08:30pm 12.0 8.9 7.3 73 2.3 WNW 13 20 7 11 1025.9 1025.9 0.0
01/08:00pm 12.2 8.6 6.9 70 2.5 W 15 22 8 12 1025.8 1025.8 0.0
01/07:30pm 12.4 7.8 6.7 68 2.7 W 20 28 11 15 1025.6 1025.6 0.0
01/07:00pm 12.4 7.1 6.7 68 2.7 W 24 35 13 19 1025.5 1025.5 0.0
01/06:30pm 12.4 7.8 6.7 68 2.7 W 20 28 11 15 1025.5 1025.5 0.0
01/06:00pm 12.6 7.4 7.3 70 2.6 W 24 32 13 17 1025.6 1025.6 0.0
01/05:30pm 12.7 7.1 7.0 68 2.7 W 26 35 14 19 1025.3 1025.3 0.0
01/05:00pm 13.0 8.0 6.4 64 3.1 WSW 22 30 12 16 1025.2 1025.2 0.0
01/04:30pm 13.7 7.5 6.3 61 3.5 WSW 28 35 15 19 1025.3 1025.3 0.0
01/04:00pm 13.8 7.6 6.2 60 3.6 WSW 28 37 15 20 1025.1 1025.1 0.0
01/03:30pm 13.3 7.6 6.6 64 3.2 WSW 26 33 14 18 1025.1 1025.1 0.0
01/03:00pm 13.6 7.5 6.7 63 3.3 WSW 28 35 15 19 1025.1 1025.1 0.0
01/02:30pm 14.4 8.6 6.3 58 3.9 WSW 26 32 14 17 1025.2 1025.2 0.0
01/02:00pm 14.4 8.2 6.3 58 3.9 WSW 28 35 15 19 1025.3 1025.3 0.0
01/01:30pm 14.4 8.6 6.3 58 3.9 WSW 26 33 14 18 1025.6 1025.6 0.0
01/01:00pm 13.7 7.9 6.1 60 3.6 WSW 26 39 14 21 1025.5 1025.5 0.0
01/12:30pm 14.5 8.6 5.6 55 4.2 WSW 26 37 14 20 1025.4 1025.4 0.0
01/12:00pm 13.9 8.2 6.5 61 3.5 WSW 26 35 14 19 1025.6 1025.6 0.0
01/11:30am 14.5 8.8 6.8 60 3.7 WSW 26 35 14 19 1025.4 1025.4 0.0
01/11:00am 14.0 7.8 6.1 59 3.7 WSW 28 37 15 20 1025.3 1025.3 0.0
01/10:30am 13.2 7.1 6.8 65 3.1 SW 28 39 15 21 1025.3 1025.3 0.0
01/10:00am 13.7 7.9 6.1 60 3.6 WSW 26 35 14 19 1025.1 1025.1 0.0
01/09:30am 12.9 7.0 6.0 63 3.3 SW 26 39 14 21 1024.8 1024.8 0.0
01/09:00am 11.5 5.6 5.6 67 2.7 SW 26 37 14 20 1024.3 1024.3 11.6
01/08:30am 12.3 6.2 6.4 67 2.8 SW 28 41 15 22 1023.6 1023.6 11.6
01/08:01am 10.5 3.8 5.5 71 2.3 SW 30 48 16 26 1023.3 1023.3 11.6
01/08:00am 10.5 3.4 5.3 70 2.4 SW 32 48 17 26 1023.3 1023.3 11.6
01/07:46am 11.7 4.9 5.3 65 2.9 SW 30 52 16 28 1023.1 1023.1 11.6
01/07:30am 11.3 5.2 5.0 65 2.9 WSW 26 39 14 21 1022.7 1022.7 11.6
01/07:00am 11.4 4.0 3.9 60 3.3 SW 32 39 17 21 1022.2 1022.2 11.6
01/06:30am 11.2 3.9 4.4 63 3.1 SW 32 43 17 23 1021.7 1021.7 11.6
01/06:00am 11.1 4.3 5.0 66 2.8 SW 30 41 16 22 1021.1 1021.1 11.6
01/05:30am 11.0 4.5 4.9 66 2.8 SW 28 39 15 21 1020.5 1020.5 11.6
01/05:00am 10.9 3.0 4.4 64 2.9 SW 35 44 19 24 1020.2 1020.2 11.6
01/04:30am 11.2 3.4 4.7 64 2.9 SW 35 48 19 26 1019.8 1019.8 11.6
01/04:00am 11.0 3.0 4.0 62 3.1 SW 35 48 19 26 1019.5 1019.5 11.6
01/03:30am 10.7 2.5 5.0 68 2.6 SW 37 50 20 27 1019.4 1019.4 11.6
01/03:27am 10.8 2.3 5.3 69 2.5 SW 39 59 21 32 1019.4 1019.4 11.6
01/03:00am 11.2 3.0 4.9 65 2.9 SW 37 48 20 26 1019.1 1019.1 11.6
01/02:30am 10.9 3.0 4.6 65 2.8 WSW 35 48 19 26 1018.8 1018.8 11.6
01/02:09am 10.3 1.8 5.1 70 2.4 WSW 39 48 21 26 1018.7 1018.7 11.6
01/02:03am 10.7 2.5 4.6 66 2.7 SSW 37 48 20 26 1018.6 1018.6 11.4
01/02:00am 11.2 3.0 4.7 64 2.9 WSW 37 46 20 25 1018.6 1018.6 11.4
01/01:30am 11.1 2.5 4.6 64 2.9 WSW 39 52 21 28 1018.3 1018.3 11.4
01/01:00am 10.9 1.3 3.5 60 3.2 WSW 43 54 23 29 1018.1 1018.1 11.4
01/12:30am 10.9 2.0 5.0 67 2.7 WSW 41 63 22 34 1017.7 1017.7 11.4
01/12:00am 10.1 2.0 5.3 72 2.2 WSW 37 52 20 28 1017.2 1017.2 11.4
 
Date/Time
EST
Temp
°C
App
Temp
°C
Dew
Point
Rel
Hum
%
Delta-T
°C
Wind Press
QNH
hPa
Press
MSL
hPa
Rain
since 9 am
mm
Dir
 
Spd
km/h
Gust
km/h
Spd
kts
Gust
kts
30/11:30pm 10.1 0.6 5.1 71 2.3 WSW 44 61 24 33 1016.9 1016.9 11.4
30/11:00pm 9.2 -1.5 4.8 74 2.0 SW 50 70 27 38 1016.7 1016.7 11.4
30/10:30pm 8.9 0.3 4.9 76 1.8 W 39 59 21 32 1016.0 1016.0 11.4
30/10:11pm 10.7 3.1 5.9 72 2.2 W 35 56 19 30 1015.7 1015.7 11.0
30/10:00pm 9.6 1.7 4.4 70 2.3 W 35 52 19 28 1015.5 1015.5 11.0
30/09:38pm 10.7 0.0 4.8 67 2.7 WSW 50 69 27 37 1015.3 1015.3 11.0
30/09:30pm 10.5 -1.2 5.3 70 2.4 WSW 56 69 30 37 1014.9 1014.9 11.0
30/09:04pm 10.7 0.2 5.5 70 2.4 WSW 50 70 27 38 1014.4 1014.4 10.8
30/09:00pm 10.8 1.5 5.8 71 2.3 WSW 44 63 24 34 1014.4 1014.4 10.8
30/08:54pm 10.4 2.5 6.4 76 1.9 WSW 37 61 20 33 1014.3 1014.3 10.8
30/08:30pm 9.4 1.1 6.1 80 1.5 WSW 39 56 21 30 1014.0 1014.0 10.8
30/08:08pm 10.6 0.9 5.8 72 2.2 SW 46 67 25 36 1013.8 1013.8 10.4
30/08:00pm 10.3 0.1 5.1 70 2.4 SW 48 63 26 34 1013.5 1013.5 10.4
30/07:59pm 10.3 -0.3 5.1 70 2.4 SW 50 63 27 34 1013.5 1013.5 10.4
30/07:30pm 11.0 1.6 4.2 63 3.0 W 43 61 23 33 1012.6 1012.6 10.4
30/07:14pm 10.5 2.5 3.8 63 3.0 W 35 56 19 30 1012.3 1012.3 10.4
30/07:00pm 10.3 2.5 3.1 61 3.1 W 33 50 18 27 1012.1 1012.1 10.4
30/06:31pm 11.3 2.1 5.4 67 2.7 W 43 65 23 35 1011.6 1011.6 10.4
30/06:30pm 11.3 2.5 5.6 68 2.6 W 41 59 22 32 1011.6 1011.6 10.4
30/06:00pm 11.6 2.1 4.8 63 3.1 WSW 44 63 24 34 1011.1 1011.1 10.4
30/05:32pm 11.9 0.9 5.1 63 3.1 WSW 52 72 28 39 1011.0 1011.0 10.4
30/05:30pm 12.0 1.5 5.6 65 3.0 WSW 50 67 27 36 1010.9 1010.9 10.4
30/05:00pm 12.1 2.4 5.9 66 2.9 W 46 67 25 36 1010.1 1010.1 10.4
30/04:34pm 12.0 3.1 6.7 70 2.5 W 43 63 23 34 1009.6 1009.6 10.4
30/04:30pm 12.3 3.5 7.2 71 2.5 W 43 59 23 32 1009.5 1009.5 10.4
30/04:00pm 11.5 2.8 7.8 78 1.8 WSW 43 54 23 29 1009.1 1009.1 10.4
30/03:40pm 10.5 1.4 6.8 78 1.7 WSW 44 56 24 30 1009.4 1009.4 10.4
30/03:30pm 10.8 -3.0 5.1 68 2.6 W 67 89 36 48 1008.8 1008.8 10.2
30/03:28pm 11.4 -2.1 4.8 64 3.0 W 65 87 35 47 1008.5 1008.5 10.2
30/03:21pm 13.6 5.3 7.6 67 2.9 W 41 61 22 33 1008.0 1008.0 10.2
30/03:00pm 13.7 4.8 7.7 67 3.0 W 44 63 24 34 1007.6 1007.6 10.2
30/02:30pm 13.3 3.5 8.6 73 2.4 W 50 67 27 36 1007.0 1007.0 10.2
30/02:00pm 11.7 3.2 8.7 82 1.5 W 43 63 23 34 1006.9 1006.9 10.2
30/01:38pm 10.7 2.6 8.8 88 0.9 W 41 59 22 32 1006.1 1006.1 10.2
30/01:30pm 9.9 1.1 8.2 89 0.8 W 44 59 24 32 1006.4 1006.4 10.2
30/01:29pm 10.1 1.6 8.4 89 0.8 W 43 59 23 32 1006.5 1006.5 10.2
30/01:12pm 10.4 -2.6 8.8 90 0.8 WSW 67 87 36 47 1006.8 1006.8 8.8
30/01:09pm 10.4 -3.2 8.8 90 0.8 WSW 70 87 38 47 1006.6 1006.6 8.6
30/01:00pm 11.0 1.8 9.4 90 0.8 W 48 74 26 40 1006.0 1006.0 8.0
30/12:40pm 11.6 0.2 9.0 84 1.3 W 59 85 32 46 1004.9 1004.9 6.2
30/12:39pm 11.8 -1.1 9.2 84 1.3 W 67 85 36 46 1004.9 1004.9 6.2
30/12:38pm 12.6 4.5 10.0 84 1.3 W 43 85 23 46 1004.8 1004.8 6.0
30/12:30pm 13.6 7.4 11.5 87 1.1 W 35 59 19 32 1003.9 1003.9 5.8
30/12:00pm 11.8 4.7 9.7 87 1.1 W 37 61 20 33 1004.4 1004.4 5.2
30/11:53am 13.8 9.0 11.8 88 1.1 WNW 28 54 15 29 1004.1 1004.1 4.0
30/11:30am 13.2 10.0 11.1 87 1.1 WNW 19 30 10 16 1004.0 1004.0 3.8
30/11:00am 12.1 4.2 9.3 83 1.4 W 41 65 22 35 1004.5 1004.5 3.4
30/10:47am 14.3 7.4 10.3 77 2.1 W 37 65 20 35 1004.6 1004.6 1.4
30/10:30am 16.2 12.2 10.5 69 3.0 NW 22 39 12 21 1004.0 1004.0 0.0
30/10:00am 16.9 11.8 10.5 66 3.4 NW 28 48 15 26 1004.3 1004.3 0.0
30/09:38am 16.8 11.7 10.6 67 3.3 NW 28 48 15 26 1004.5 1004.5 0.0
30/09:30am 17.2 11.7 10.6 65 3.5 NW 30 48 16 26 1004.5 1004.5 0.0
30/09:00am 16.6 11.6 10.9 69 3.1 NW 28 50 15 27 1005.0 1005.0 0.0
30/08:30am 16.3 13.1 11.9 75 2.4 NNW 20 37 11 20 1005.3 1005.3 0.0
30/08:00am 14.7 11.9 11.5 81 1.7 NNW 17 32 9 17 1005.4 1005.4 0.0
30/07:30am 13.4 10.1 10.8 84 1.4 NNW 19 30 10 16 1005.8 1005.8 0.0
30/07:00am 12.7 9.3 10.4 86 1.2 N 19 32 10 17 1006.1 1006.1 0.0
30/06:30am 12.6 9.1 10.3 86 1.2 NNW 19 30 10 16 1006.3 1006.3 0.0
30/06:00am 12.7 9.2 10.2 85 1.3 NNW 19 32 10 17 1006.2 1006.2 0.0
30/05:30am 12.7 9.3 10.4 86 1.2 NNW 19 30 10 16 1006.7 1006.7 0.0
30/05:00am 12.3 8.6 10.2 87 1.1 NNW 20 30 11 16 1006.8 1006.8 0.0
30/04:30am 11.8 8.2 9.7 87 1.1 NNW 19 28 10 15 1007.0 1007.0 0.0
30/04:00am 11.5 8.2 9.4 87 1.1 N 17 30 9 16 1007.3 1007.3 0.0
30/03:30am 11.2 7.8 9.1 87 1.0 N 17 26 9 14 1007.6 1007.6 0.0
30/03:00am 10.5 7.3 8.4 87 1.0 N 15 20 8 11 1008.1 1008.1 0.0
30/02:30am 10.5 7.3 8.4 87 1.0 N 15 26 8 14 1008.2 1008.2 0.0
30/02:00am 10.5 7.3 8.3 86 1.1 N 15 22 8 12 1008.7 1008.7 0.0
30/01:30am 10.2 7.6 7.8 85 1.2 N 11 19 6 10 1009.4 1009.4 0.0
30/01:00am 10.2 7.2 7.6 84 1.2 N 13 22 7 12 1009.7 1009.7 0.0
30/12:30am 10.1 7.8 7.3 83 1.3 N 9 15 5 8 1010.0 1010.0 0.0
30/12:00am 10.5 7.9 7.7 83 1.3 NNW 11 15 6 8 1010.2 1010.2 0.0
 
Date/Time
EST
Temp
°C
App
Temp
°C
Dew
Point
Rel
Hum
%
Delta-T
°C
Wind Press
QNH
hPa
Press
MSL
hPa
Rain
since 9 am
mm
Dir
 
Spd
km/h
Gust
km/h
Spd
kts
Gust
kts
29/11:30pm 10.9 8.4 8.1 83 1.4 NNW 11 15 6 8 1010.4 1010.4 0.0
29/11:00pm 10.9 8.8 8.1 83 1.4 NNW 9 13 5 7 1010.8 1010.8 0.0
29/10:30pm 10.9 9.1 8.0 82 1.4 NW 7 11 4 6 1011.1 1011.1 0.0
29/10:00pm 11.2 9.4 7.9 80 1.6 WNW 7 11 4 6 1011.5 1011.5 0.0
29/09:30pm 11.8 9.7 8.3 79 1.7 WNW 9 15 5 8 1011.6 1011.6 0.0
29/09:00pm 12.4 10.0 8.7 78 1.8 WNW 11 17 6 9 1011.5 1011.5 0.0
29/08:30pm 12.3 9.9 8.8 79 1.7 WNW 11 15 6 8 1011.5 1011.5 0.0
29/08:00pm 13.2 11.5 9.8 80 1.7 WNW 9 19 5 10 1011.3 1011.3 0.0
29/07:30pm 13.8 10.1 10.2 79 1.9 W 20 28 11 15 1010.9 1010.9 0.0
29/07:00pm 13.8 10.0 9.8 77 2.1 W 20 30 11 16 1010.4 1010.4 0.0

Other Formats:

Comma delimited format used in spreadsheet applications
http://www.bom.gov.au/fwo/IDV60801/IDV60801.94830.axf

JavaScript Object Notation format (JSON) in row-major order
http://www.bom.gov.au/fwo/IDV60801/IDV60801.94830.json